sensor_id;sensor_type;location;lat;lon;timestamp;temperature;humidity
71175;DHT22;58876;51.994;4.472;2022-11-15T00:00:40;9.19;83.90
71175;DHT22;58876;51.994;4.472;2022-11-15T00:03:05;9.19;83.77
71175;DHT22;58876;51.994;4.472;2022-11-15T00:05:34;9.23;83.78
71175;DHT22;58876;51.994;4.472;2022-11-15T00:08:00;9.31;83.78
71175;DHT22;58876;51.994;4.472;2022-11-15T00:10:25;9.30;83.61
71175;DHT22;58876;51.994;4.472;2022-11-15T00:12:51;9.34;83.66
71175;DHT22;58876;51.994;4.472;2022-11-15T00:15:16;9.27;84.01
71175;DHT22;58876;51.994;4.472;2022-11-15T00:17:42;9.30;84.12
71175;DHT22;58876;51.994;4.472;2022-11-15T00:20:07;9.31;84.33
71175;DHT22;58876;51.994;4.472;2022-11-15T00:22:33;9.35;84.46
71175;DHT22;58876;51.994;4.472;2022-11-15T00:24:59;9.33;84.38
71175;DHT22;58876;51.994;4.472;2022-11-15T00:27:24;9.33;84.45
71175;DHT22;58876;51.994;4.472;2022-11-15T00:29:49;9.37;84.80
71175;DHT22;58876;51.994;4.472;2022-11-15T00:32:15;9.50;84.48
71175;DHT22;58876;51.994;4.472;2022-11-15T00:34:40;9.51;84.31
71175;DHT22;58876;51.994;4.472;2022-11-15T00:37:06;9.54;84.16
71175;DHT22;58876;51.994;4.472;2022-11-15T00:39:31;9.48;84.58
71175;DHT22;58876;51.994;4.472;2022-11-15T00:41:57;9.52;84.37
71175;DHT22;58876;51.994;4.472;2022-11-15T00:44:22;9.54;84.49
71175;DHT22;58876;51.994;4.472;2022-11-15T00:46:48;9.44;84.57
71175;DHT22;58876;51.994;4.472;2022-11-15T00:49:13;9.31;85.44
71175;DHT22;58876;51.994;4.472;2022-11-15T00:51:39;9.30;86.21
71175;DHT22;58876;51.994;4.472;2022-11-15T00:54:04;9.38;85.82
71175;DHT22;58876;51.994;4.472;2022-11-15T00:56:30;9.52;85.35
71175;DHT22;58876;51.994;4.472;2022-11-15T00:58:55;9.44;85.60
71175;DHT22;58876;51.994;4.472;2022-11-15T01:01:20;9.52;85.59
71175;DHT22;58876;51.994;4.472;2022-11-15T01:03:46;9.54;85.63
71175;DHT22;58876;51.994;4.472;2022-11-15T01:06:11;9.50;85.95
71175;DHT22;58876;51.994;4.472;2022-11-15T01:08:40;9.50;86.26
71175;DHT22;58876;51.994;4.472;2022-11-15T01:11:08;9.50;86.18
71175;DHT22;58876;51.994;4.472;2022-11-15T01:13:37;9.54;86.35
71175;DHT22;58876;51.994;4.472;2022-11-15T01:16:14;9.61;86.07
71175;DHT22;58876;51.994;4.472;2022-11-15T01:18:41;9.64;85.74
71175;DHT22;58876;51.994;4.472;2022-11-15T01:21:09;9.54;86.27
71175;DHT22;58876;51.994;4.472;2022-11-15T01:23:35;9.47;86.73
71175;DHT22;58876;51.994;4.472;2022-11-15T01:26:02;9.50;86.86
71175;DHT22;58876;51.994;4.472;2022-11-15T01:28:32;9.50;86.95
71175;DHT22;58876;51.994;4.472;2022-11-15T01:31:02;9.54;86.95
71175;DHT22;58876;51.994;4.472;2022-11-15T01:33:29;9.59;87.03
71175;DHT22;58876;51.994;4.472;2022-11-15T01:35:55;9.59;86.92
71175;DHT22;58876;51.994;4.472;2022-11-15T01:38:21;9.72;86.81
71175;DHT22;58876;51.994;4.472;2022-11-15T01:40:47;9.78;86.71
71175;DHT22;58876;51.994;4.472;2022-11-15T01:45:56;9.86;86.48
71175;DHT22;58876;51.994;4.472;2022-11-15T01:48:32;9.85;86.98
71175;DHT22;58876;51.994;4.472;2022-11-15T01:51:01;9.98;86.69
71175;DHT22;58876;51.994;4.472;2022-11-15T01:53:29;10.05;86.27
71175;DHT22;58876;51.994;4.472;2022-11-15T01:55:55;10.12;86.52
71175;DHT22;58876;51.994;4.472;2022-11-15T01:58:21;10.20;86.20
71175;DHT22;58876;51.994;4.472;2022-11-15T02:00:48;10.20;86.54
71175;DHT22;58876;51.994;4.472;2022-11-15T02:03:15;10.28;86.10
71175;DHT22;58876;51.994;4.472;2022-11-15T02:05:42;10.23;86.56
71175;DHT22;58876;51.994;4.472;2022-11-15T02:08:09;10.36;86.59
71175;DHT22;58876;51.994;4.472;2022-11-15T02:10:45;10.28;87.45
71175;DHT22;58876;51.994;4.472;2022-11-15T02:13:14;10.33;87.58
71175;DHT22;58876;51.994;4.472;2022-11-15T02:18:57;10.51;87.46
71175;DHT22;58876;51.994;4.472;2022-11-15T02:21:32;10.54;87.11
71175;DHT22;58876;51.994;4.472;2022-11-15T02:35:58;10.81;87.07
71175;DHT22;58876;51.994;4.472;2022-11-15T02:39:02;10.88;86.95
71175;DHT22;58876;51.994;4.472;2022-11-15T02:44:18;10.78;87.84
71175;DHT22;58876;51.994;4.472;2022-11-15T02:47:00;10.84;87.74
71175;DHT22;58876;51.994;4.472;2022-11-15T02:49:45;10.90;87.51
71175;DHT22;58876;51.994;4.472;2022-11-15T02:52:22;10.98;87.49
71175;DHT22;58876;51.994;4.472;2022-11-15T02:54:59;10.98;87.52
71175;DHT22;58876;51.994;4.472;2022-11-15T02:57:45;10.87;88.29
71175;DHT22;58876;51.994;4.472;2022-11-15T03:00:21;11.04;87.97
71175;DHT22;58876;51.994;4.472;2022-11-15T03:06:16;11.14;87.17
71175;DHT22;58876;51.994;4.472;2022-11-15T03:09:01;11.16;87.56
71175;DHT22;58876;51.994;4.472;2022-11-15T03:11:32;11.29;87.53
71175;DHT22;58876;51.994;4.472;2022-11-15T03:19:59;11.38;87.78
71175;DHT22;58876;51.994;4.472;2022-11-15T03:22:29;11.55;87.51
71175;DHT22;58876;51.994;4.472;2022-11-15T03:25:04;11.63;86.85
71175;DHT22;58876;51.994;4.472;2022-11-15T03:27:39;11.49;87.84
71175;DHT22;58876;51.994;4.472;2022-11-15T03:30:07;11.50;87.86
71175;DHT22;58876;51.994;4.472;2022-11-15T03:32:44;11.63;87.84
71175;DHT22;58876;51.994;4.472;2022-11-15T03:35:17;11.52;87.95
71175;DHT22;58876;51.994;4.472;2022-11-15T03:40:58;11.60;87.75
71175;DHT22;58876;51.994;4.472;2022-11-15T03:46:16;11.65;88.18
71175;DHT22;58876;51.994;4.472;2022-11-15T03:48:49;11.65;88.14
71175;DHT22;58876;51.994;4.472;2022-11-15T03:51:16;11.69;87.96
71175;DHT22;58876;51.994;4.472;2022-11-15T03:53:42;11.69;88.10
71175;DHT22;58876;51.994;4.472;2022-11-15T03:56:07;11.71;87.85
71175;DHT22;58876;51.994;4.472;2022-11-15T03:58:33;11.83;87.70
71175;DHT22;58876;51.994;4.472;2022-11-15T04:00:58;11.89;87.37
71175;DHT22;58876;51.994;4.472;2022-11-15T04:03:25;11.95;87.25
71175;DHT22;58876;51.994;4.472;2022-11-15T04:05:50;11.94;87.07
71175;DHT22;58876;51.994;4.472;2022-11-15T04:08:16;12.00;86.67
71175;DHT22;58876;51.994;4.472;2022-11-15T04:10:42;11.89;87.36
71175;DHT22;58876;51.994;4.472;2022-11-15T04:13:07;11.94;87.17
71175;DHT22;58876;51.994;4.472;2022-11-15T04:15:33;11.97;87.22
71175;DHT22;58876;51.994;4.472;2022-11-15T04:17:58;11.91;87.35
71175;DHT22;58876;51.994;4.472;2022-11-15T04:20:27;11.97;86.92
71175;DHT22;58876;51.994;4.472;2022-11-15T04:23:16;11.95;86.98
71175;DHT22;58876;51.994;4.472;2022-11-15T04:26:03;12.00;87.26
71175;DHT22;58876;51.994;4.472;2022-11-15T04:28:30;12.04;86.81
71175;DHT22;58876;51.994;4.472;2022-11-15T04:30:55;12.01;86.91
71175;DHT22;58876;51.994;4.472;2022-11-15T04:33:22;12.08;86.33
71175;DHT22;58876;51.994;4.472;2022-11-15T04:35:47;12.01;87.01
71175;DHT22;58876;51.994;4.472;2022-11-15T04:38:34;11.98;87.13
71175;DHT22;58876;51.994;4.472;2022-11-15T04:40:59;12.18;86.40
71175;DHT22;58876;51.994;4.472;2022-11-15T04:43:25;12.00;86.61
71175;DHT22;58876;51.994;4.472;2022-11-15T04:45:50;12.05;86.73
71175;DHT22;58876;51.994;4.472;2022-11-15T04:48:16;11.98;86.78
71175;DHT22;58876;51.994;4.472;2022-11-15T04:50:41;12.02;86.48
71175;DHT22;58876;51.994;4.472;2022-11-15T04:53:07;11.95;86.58
71175;DHT22;58876;51.994;4.472;2022-11-15T04:55:32;12.00;86.69
71175;DHT22;58876;51.994;4.472;2022-11-15T04:58:02;12.07;86.61
71175;DHT22;58876;51.994;4.472;2022-11-15T05:00:29;12.02;86.64
71175;DHT22;58876;51.994;4.472;2022-11-15T05:02:56;12.08;86.10
71175;DHT22;58876;51.994;4.472;2022-11-15T05:05:40;12.16;85.94
71175;DHT22;58876;51.994;4.472;2022-11-15T05:08:06;11.93;87.00
71175;DHT22;58876;51.994;4.472;2022-11-15T05:10:31;11.97;86.48
71175;DHT22;58876;51.994;4.472;2022-11-15T05:12:57;11.91;86.70
71175;DHT22;58876;51.994;4.472;2022-11-15T05:15:22;11.86;86.75
71175;DHT22;58876;51.994;4.472;2022-11-15T05:17:47;11.77;87.16
71175;DHT22;58876;51.994;4.472;2022-11-15T05:20:13;11.97;86.91
71175;DHT22;58876;51.994;4.472;2022-11-15T05:22:39;11.98;86.29
71175;DHT22;58876;51.994;4.472;2022-11-15T05:25:05;12.13;85.59
71175;DHT22;58876;51.994;4.472;2022-11-15T05:27:31;12.02;86.21
71175;DHT22;58876;51.994;4.472;2022-11-15T05:29:57;12.01;86.19
71175;DHT22;58876;51.994;4.472;2022-11-15T05:32:23;12.00;86.26
71175;DHT22;58876;51.994;4.472;2022-11-15T05:34:49;11.91;86.19
71175;DHT22;58876;51.994;4.472;2022-11-15T05:37:15;12.01;85.87
71175;DHT22;58876;51.994;4.472;2022-11-15T05:39:41;11.98;85.90
71175;DHT22;58876;51.994;4.472;2022-11-15T05:42:11;11.93;85.98
71175;DHT22;58876;51.994;4.472;2022-11-15T05:44:41;11.97;86.24
71175;DHT22;58876;51.994;4.472;2022-11-15T05:47:13;11.91;85.63
71175;DHT22;58876;51.994;4.472;2022-11-15T05:49:44;11.89;86.38
71175;DHT22;58876;51.994;4.472;2022-11-15T05:52:14;11.81;86.02
71175;DHT22;58876;51.994;4.472;2022-11-15T05:54:42;11.98;85.86
71175;DHT22;58876;51.994;4.472;2022-11-15T05:57:08;11.79;85.83
71175;DHT22;58876;51.994;4.472;2022-11-15T05:59:35;11.79;85.76
71175;DHT22;58876;51.994;4.472;2022-11-15T06:02:01;11.73;85.86
71175;DHT22;58876;51.994;4.472;2022-11-15T06:04:27;11.79;85.79
71175;DHT22;58876;51.994;4.472;2022-11-15T06:06:52;11.56;86.31
71175;DHT22;58876;51.994;4.472;2022-11-15T06:09:17;11.65;86.08
71175;DHT22;58876;51.994;4.472;2022-11-15T06:11:43;11.60;85.93
71175;DHT22;58876;51.994;4.472;2022-11-15T06:14:08;11.67;85.68
71175;DHT22;58876;51.994;4.472;2022-11-15T06:16:34;11.47;86.12
71175;DHT22;58876;51.994;4.472;2022-11-15T06:18:59;11.55;85.75
71175;DHT22;58876;51.994;4.472;2022-11-15T06:21:24;11.59;85.36
71175;DHT22;58876;51.994;4.472;2022-11-15T06:23:53;11.60;84.85
71175;DHT22;58876;51.994;4.472;2022-11-15T06:26:19;11.69;84.61
71175;DHT22;58876;51.994;4.472;2022-11-15T06:28:44;11.65;84.48
71175;DHT22;58876;51.994;4.472;2022-11-15T06:31:10;11.59;84.70
71175;DHT22;58876;51.994;4.472;2022-11-15T06:33:39;11.65;84.27
71175;DHT22;58876;51.994;4.472;2022-11-15T06:36:07;11.60;83.91
71175;DHT22;58876;51.994;4.472;2022-11-15T06:38:34;11.44;84.65
71175;DHT22;58876;51.994;4.472;2022-11-15T06:41:05;11.52;84.19
71175;DHT22;58876;51.994;4.472;2022-11-15T06:43:31;11.42;84.21
71175;DHT22;58876;51.994;4.472;2022-11-15T06:45:59;11.31;84.84
71175;DHT22;58876;51.994;4.472;2022-11-15T06:48:25;11.21;85.48
71175;DHT22;58876;51.994;4.472;2022-11-15T06:50:55;11.26;85.23
71175;DHT22;58876;51.994;4.472;2022-11-15T06:53:21;11.25;85.07
71175;DHT22;58876;51.994;4.472;2022-11-15T06:55:47;11.28;84.99
71175;DHT22;58876;51.994;4.472;2022-11-15T06:58:12;11.23;85.35
71175;DHT22;58876;51.994;4.472;2022-11-15T07:00:38;11.35;85.06
71175;DHT22;58876;51.994;4.472;2022-11-15T07:03:03;11.39;84.65
71175;DHT22;58876;51.994;4.472;2022-11-15T07:05:29;11.43;84.58
71175;DHT22;58876;51.994;4.472;2022-11-15T07:07:56;11.29;84.50
71175;DHT22;58876;51.994;4.472;2022-11-15T07:10:23;11.29;84.56
71175;DHT22;58876;51.994;4.472;2022-11-15T07:12:53;11.33;84.58
71175;DHT22;58876;51.994;4.472;2022-11-15T07:15:21;11.36;84.38
71175;DHT22;58876;51.994;4.472;2022-11-15T07:17:47;11.38;84.30
71175;DHT22;58876;51.994;4.472;2022-11-15T07:20:13;11.35;84.20
71175;DHT22;58876;51.994;4.472;2022-11-15T07:22:40;11.36;84.23
71175;DHT22;58876;51.994;4.472;2022-11-15T07:25:06;11.43;83.83
71175;DHT22;58876;51.994;4.472;2022-11-15T07:27:32;11.53;83.46
71175;DHT22;58876;51.994;4.472;2022-11-15T07:29:57;11.50;83.05
71175;DHT22;58876;51.994;4.472;2022-11-15T07:32:23;11.56;82.91
71175;DHT22;58876;51.994;4.472;2022-11-15T07:34:48;11.42;82.95
71175;DHT22;58876;51.994;4.472;2022-11-15T07:37:14;11.56;82.49
71175;DHT22;58876;51.994;4.472;2022-11-15T07:39:40;11.46;82.35
71175;DHT22;58876;51.994;4.472;2022-11-15T07:42:05;11.50;82.52
71175;DHT22;58876;51.994;4.472;2022-11-15T07:44:50;11.42;82.45
71175;DHT22;58876;51.994;4.472;2022-11-15T07:47:15;11.58;82.12
71175;DHT22;58876;51.994;4.472;2022-11-15T07:49:40;11.62;81.58
71175;DHT22;58876;51.994;4.472;2022-11-15T07:52:06;11.56;82.09
71175;DHT22;58876;51.994;4.472;2022-11-15T07:54:31;11.46;82.47
71175;DHT22;58876;51.994;4.472;2022-11-15T07:56:57;11.46;82.43
71175;DHT22;58876;51.994;4.472;2022-11-15T07:59:22;11.42;82.17
71175;DHT22;58876;51.994;4.472;2022-11-15T08:01:48;11.32;82.64
71175;DHT22;58876;51.994;4.472;2022-11-15T08:04:13;11.52;82.02
71175;DHT22;58876;51.994;4.472;2022-11-15T08:06:39;11.46;82.10
71175;DHT22;58876;51.994;4.472;2022-11-15T08:09:04;11.35;82.46
71175;DHT22;58876;51.994;4.472;2022-11-15T08:11:30;11.46;82.29
71175;DHT22;58876;51.994;4.472;2022-11-15T08:13:55;11.46;82.02
71175;DHT22;58876;51.994;4.472;2022-11-15T08:16:21;11.63;81.36
71175;DHT22;58876;51.994;4.472;2022-11-15T08:18:47;11.81;81.10
71175;DHT22;58876;51.994;4.472;2022-11-15T08:21:19;11.86;80.84
71175;DHT22;58876;51.994;4.472;2022-11-15T08:23:44;12.02;80.22
71175;DHT22;58876;51.994;4.472;2022-11-15T08:26:10;12.11;80.05
71175;DHT22;58876;51.994;4.472;2022-11-15T08:28:36;11.91;80.74
71175;DHT22;58876;51.994;4.472;2022-11-15T08:31:03;11.71;81.43
71175;DHT22;58876;51.994;4.472;2022-11-15T08:33:29;11.83;80.93
71175;DHT22;58876;51.994;4.472;2022-11-15T08:35:58;11.86;81.04
71175;DHT22;58876;51.994;4.472;2022-11-15T08:38:24;11.86;80.74
71175;DHT22;58876;51.994;4.472;2022-11-15T08:41:01;11.95;80.53
71175;DHT22;58876;51.994;4.472;2022-11-15T08:43:27;12.07;80.31
71175;DHT22;58876;51.994;4.472;2022-11-15T08:45:56;11.86;80.96
71175;DHT22;58876;51.994;4.472;2022-11-15T08:48:22;12.01;80.58
71175;DHT22;58876;51.994;4.472;2022-11-15T08:50:47;11.89;80.78
71175;DHT22;58876;51.994;4.472;2022-11-15T08:53:12;11.84;80.92
71175;DHT22;58876;51.994;4.472;2022-11-15T08:55:39;11.87;80.86
71175;DHT22;58876;51.994;4.472;2022-11-15T08:58:05;11.95;80.28
71175;DHT22;58876;51.994;4.472;2022-11-15T09:00:32;11.98;79.59
71175;DHT22;58876;51.994;4.472;2022-11-15T09:02:57;11.93;79.96
71175;DHT22;58876;51.994;4.472;2022-11-15T09:05:25;12.05;79.76
71175;DHT22;58876;51.994;4.472;2022-11-15T09:07:54;12.20;79.41
71175;DHT22;58876;51.994;4.472;2022-11-15T09:10:20;12.34;78.52
71175;DHT22;58876;51.994;4.472;2022-11-15T09:12:46;12.32;78.50
71175;DHT22;58876;51.994;4.472;2022-11-15T09:15:14;12.27;78.11
71175;DHT22;58876;51.994;4.472;2022-11-15T09:17:40;12.42;77.94
71175;DHT22;58876;51.994;4.472;2022-11-15T09:20:06;12.39;77.58
71175;DHT22;58876;51.994;4.472;2022-11-15T09:22:32;12.44;77.70
71175;DHT22;58876;51.994;4.472;2022-11-15T09:24:57;12.38;78.28
71175;DHT22;58876;51.994;4.472;2022-11-15T09:27:27;12.35;77.99
71175;DHT22;58876;51.994;4.472;2022-11-15T09:29:53;12.55;77.46
71175;DHT22;58876;51.994;4.472;2022-11-15T09:32:18;12.73;77.11
71175;DHT22;58876;51.994;4.472;2022-11-15T09:34:43;12.69;76.92
71175;DHT22;58876;51.994;4.472;2022-11-15T09:37:09;12.60;77.27
71175;DHT22;58876;51.994;4.472;2022-11-15T09:39:34;12.58;76.70
71175;DHT22;58876;51.994;4.472;2022-11-15T09:44:59;12.63;76.33
71175;DHT22;58876;51.994;4.472;2022-11-15T09:50:07;12.62;76.26
71175;DHT22;58876;51.994;4.472;2022-11-15T09:52:36;12.60;76.16
71175;DHT22;58876;51.994;4.472;2022-11-15T09:55:07;12.59;75.97
71175;DHT22;58876;51.994;4.472;2022-11-15T10:00:36;12.85;74.80
71175;DHT22;58876;51.994;4.472;2022-11-15T10:03:16;12.92;75.21
71175;DHT22;58876;51.994;4.472;2022-11-15T10:05:47;12.80;75.45
71175;DHT22;58876;51.994;4.472;2022-11-15T10:11:00;12.87;74.86
71175;DHT22;58876;51.994;4.472;2022-11-15T10:13:30;12.68;74.92
71175;DHT22;58876;51.994;4.472;2022-11-15T10:16:08;12.95;75.10
71175;DHT22;58876;51.994;4.472;2022-11-15T10:19:13;12.97;74.32
71175;DHT22;58876;51.994;4.472;2022-11-15T10:22:03;12.90;74.11
71175;DHT22;58876;51.994;4.472;2022-11-15T10:24:45;13.03;73.51
71175;DHT22;58876;51.994;4.472;2022-11-15T10:27:13;13.07;73.68
71175;DHT22;58876;51.994;4.472;2022-11-15T10:29:44;13.14;73.03
71175;DHT22;58876;51.994;4.472;2022-11-15T10:32:11;13.38;71.91
71175;DHT22;58876;51.994;4.472;2022-11-15T10:34:37;13.23;72.41
71175;DHT22;58876;51.994;4.472;2022-11-15T10:37:03;13.17;72.50
71175;DHT22;58876;51.994;4.472;2022-11-15T10:39:29;13.38;72.60
71175;DHT22;58876;51.994;4.472;2022-11-15T10:41:54;13.41;71.58
71175;DHT22;58876;51.994;4.472;2022-11-15T10:44:21;13.43;71.67
71175;DHT22;58876;51.994;4.472;2022-11-15T10:47:04;13.34;72.01
71175;DHT22;58876;51.994;4.472;2022-11-15T10:49:32;13.28;71.78
71175;DHT22;58876;51.994;4.472;2022-11-15T10:54:48;13.10;71.97
71175;DHT22;58876;51.994;4.472;2022-11-15T10:57:17;13.07;72.35
71175;DHT22;58876;51.994;4.472;2022-11-15T10:59:56;13.00;72.38
71175;DHT22;58876;51.994;4.472;2022-11-15T11:02:32;12.96;72.58
71175;DHT22;58876;51.994;4.472;2022-11-15T11:04:59;13.33;72.57
71175;DHT22;58876;51.994;4.472;2022-11-15T11:07:31;13.21;71.78
71175;DHT22;58876;51.994;4.472;2022-11-15T11:10:18;13.31;71.62
71175;DHT22;58876;51.994;4.472;2022-11-15T11:12:44;13.40;71.39
71175;DHT22;58876;51.994;4.472;2022-11-15T11:15:13;13.36;71.30
71175;DHT22;58876;51.994;4.472;2022-11-15T11:17:55;13.48;71.00
71175;DHT22;58876;51.994;4.472;2022-11-15T11:20:51;13.74;70.31
71175;DHT22;58876;51.994;4.472;2022-11-15T11:29:38;13.92;69.33
71175;DHT22;58876;51.994;4.472;2022-11-15T11:35:08;13.88;69.38
71175;DHT22;58876;51.994;4.472;2022-11-15T11:37:52;14.10;68.96
71175;DHT22;58876;51.994;4.472;2022-11-15T11:40:29;13.79;69.00
71175;DHT22;58876;51.994;4.472;2022-11-15T11:43:23;13.71;69.07
71175;DHT22;58876;51.994;4.472;2022-11-15T11:45:59;13.64;69.73
71175;DHT22;58876;51.994;4.472;2022-11-15T11:48:44;13.57;69.90
71175;DHT22;58876;51.994;4.472;2022-11-15T11:51:30;13.85;69.71
71175;DHT22;58876;51.994;4.472;2022-11-15T11:54:03;13.64;69.09
71175;DHT22;58876;51.994;4.472;2022-11-15T11:56:33;13.86;70.07
71175;DHT22;58876;51.994;4.472;2022-11-15T11:59:37;14.12;68.30
71175;DHT22;58876;51.994;4.472;2022-11-15T12:02:37;14.25;68.05
71175;DHT22;58876;51.994;4.472;2022-11-15T12:05:13;14.17;68.13
71175;DHT22;58876;51.994;4.472;2022-11-15T12:07:47;14.15;68.04
71175;DHT22;58876;51.994;4.472;2022-11-15T12:10:29;14.15;67.85
71175;DHT22;58876;51.994;4.472;2022-11-15T12:13:06;14.25;67.70
71175;DHT22;58876;51.994;4.472;2022-11-15T12:15:43;14.30;67.53
71175;DHT22;58876;51.994;4.472;2022-11-15T12:18:16;14.56;67.34
71175;DHT22;58876;51.994;4.472;2022-11-15T12:20:55;14.70;66.82
71175;DHT22;58876;51.994;4.472;2022-11-15T12:23:30;14.50;66.03
71175;DHT22;58876;51.994;4.472;2022-11-15T12:26:06;14.65;66.74
71175;DHT22;58876;51.994;4.472;2022-11-15T12:28:53;14.60;66.15
71175;DHT22;58876;51.994;4.472;2022-11-15T12:34:04;14.64;66.40
71175;DHT22;58876;51.994;4.472;2022-11-15T12:36:41;14.47;65.66
71175;DHT22;58876;51.994;4.472;2022-11-15T12:39:12;14.50;65.37
71175;DHT22;58876;51.994;4.472;2022-11-15T12:41:43;14.30;65.78
71175;DHT22;58876;51.994;4.472;2022-11-15T12:44:56;14.23;66.08
71175;DHT22;58876;51.994;4.472;2022-11-15T12:47:44;14.33;66.23
71175;DHT22;58876;51.994;4.472;2022-11-15T12:50:04;14.27;65.66
71175;DHT22;58876;51.994;4.472;2022-11-15T12:52:29;14.32;65.83
71175;DHT22;58876;51.994;4.472;2022-11-15T12:54:58;14.30;65.68
71175;DHT22;58876;51.994;4.472;2022-11-15T12:57:33;14.06;66.50
71175;DHT22;58876;51.994;4.472;2022-11-15T13:02:37;14.06;66.23
71175;DHT22;58876;51.994;4.472;2022-11-15T13:17:43;13.99;65.86
71175;DHT22;58876;51.994;4.472;2022-11-15T13:20:18;13.85;65.96
71175;DHT22;58876;51.994;4.472;2022-11-15T13:27:53;13.88;65.72
71175;DHT22;58876;51.994;4.472;2022-11-15T13:30:31;13.79;65.71
71175;DHT22;58876;51.994;4.472;2022-11-15T13:33:07;13.74;64.73
71175;DHT22;58876;51.994;4.472;2022-11-15T13:35:38;13.64;65.19
71175;DHT22;58876;51.994;4.472;2022-11-15T13:38:04;13.68;65.42
71175;DHT22;58876;51.994;4.472;2022-11-15T13:40:37;13.68;64.95
71175;DHT22;58876;51.994;4.472;2022-11-15T13:46:07;13.61;65.75
71175;DHT22;58876;51.994;4.472;2022-11-15T13:48:33;13.69;65.00
71175;DHT22;58876;51.994;4.472;2022-11-15T13:51:01;13.59;65.07
71175;DHT22;58876;51.994;4.472;2022-11-15T13:53:32;13.68;65.39
71175;DHT22;58876;51.994;4.472;2022-11-15T13:55:58;13.81;65.10
71175;DHT22;58876;51.994;4.472;2022-11-15T13:58:25;13.92;65.09
71175;DHT22;58876;51.994;4.472;2022-11-15T14:01:00;13.96;64.69
71175;DHT22;58876;51.994;4.472;2022-11-15T14:03:32;13.89;65.21
71175;DHT22;58876;51.994;4.472;2022-11-15T14:06:14;13.90;65.16
71175;DHT22;58876;51.994;4.472;2022-11-15T14:08:57;13.92;64.82
71175;DHT22;58876;51.994;4.472;2022-11-15T14:11:23;13.62;65.52
71175;DHT22;58876;51.994;4.472;2022-11-15T14:16:46;13.75;65.47
71175;DHT22;58876;51.994;4.472;2022-11-15T14:19:33;13.74;65.01
71175;DHT22;58876;51.994;4.472;2022-11-15T14:22:23;13.69;65.83
71175;DHT22;58876;51.994;4.472;2022-11-15T14:25:14;13.71;65.91
71175;DHT22;58876;51.994;4.472;2022-11-15T14:27:42;13.81;65.46
71175;DHT22;58876;51.994;4.472;2022-11-15T14:30:17;13.78;65.63
71175;DHT22;58876;51.994;4.472;2022-11-15T14:32:50;13.76;65.64
71175;DHT22;58876;51.994;4.472;2022-11-15T14:35:20;13.58;66.03
71175;DHT22;58876;51.994;4.472;2022-11-15T14:37:46;13.67;66.54
71175;DHT22;58876;51.994;4.472;2022-11-15T14:40:16;13.59;66.23
71175;DHT22;58876;51.994;4.472;2022-11-15T14:42:44;13.78;66.02
71175;DHT22;58876;51.994;4.472;2022-11-15T14:45:17;13.72;65.85
71175;DHT22;58876;51.994;4.472;2022-11-15T14:47:43;13.71;66.16
71175;DHT22;58876;51.994;4.472;2022-11-15T14:50:14;13.72;66.09
71175;DHT22;58876;51.994;4.472;2022-11-15T14:52:40;13.64;66.42
71175;DHT22;58876;51.994;4.472;2022-11-15T14:55:27;13.59;66.54
71175;DHT22;58876;51.994;4.472;2022-11-15T14:57:54;13.71;66.30
71175;DHT22;58876;51.994;4.472;2022-11-15T15:00:21;13.72;66.35
71175;DHT22;58876;51.994;4.472;2022-11-15T15:02:48;13.71;66.47
71175;DHT22;58876;51.994;4.472;2022-11-15T15:05:17;13.69;66.62
71175;DHT22;58876;51.994;4.472;2022-11-15T15:07:43;13.65;66.81
71175;DHT22;58876;51.994;4.472;2022-11-15T15:10:09;13.58;66.86
71175;DHT22;58876;51.994;4.472;2022-11-15T15:12:35;13.58;67.20
71175;DHT22;58876;51.994;4.472;2022-11-15T15:15:00;13.69;67.07
71175;DHT22;58876;51.994;4.472;2022-11-15T15:17:25;13.61;67.30
71175;DHT22;58876;51.994;4.472;2022-11-15T15:19:51;13.68;67.37
71175;DHT22;58876;51.994;4.472;2022-11-15T15:22:19;13.72;67.40
71175;DHT22;58876;51.994;4.472;2022-11-15T15:24:48;13.64;67.60
71175;DHT22;58876;51.994;4.472;2022-11-15T15:27:14;13.50;67.94
71175;DHT22;58876;51.994;4.472;2022-11-15T15:29:39;13.68;68.02
71175;DHT22;58876;51.994;4.472;2022-11-15T15:32:06;13.75;68.11
71175;DHT22;58876;51.994;4.472;2022-11-15T15:34:32;13.58;70.07
71175;DHT22;58876;51.994;4.472;2022-11-15T15:37:25;13.46;71.54
71175;DHT22;58876;51.994;4.472;2022-11-15T15:39:55;13.26;72.41
71175;DHT22;58876;51.994;4.472;2022-11-15T15:42:22;13.13;73.06
71175;DHT22;58876;51.994;4.472;2022-11-15T15:44:49;13.10;73.43
71175;DHT22;58876;51.994;4.472;2022-11-15T15:47:22;12.93;74.92
71175;DHT22;58876;51.994;4.472;2022-11-15T15:49:50;12.86;75.38
71175;DHT22;58876;51.994;4.472;2022-11-15T15:52:15;12.79;75.88
71175;DHT22;58876;51.994;4.472;2022-11-15T15:54:42;12.78;76.44
71175;DHT22;58876;51.994;4.472;2022-11-15T15:57:11;12.63;76.83
71175;DHT22;58876;51.994;4.472;2022-11-15T15:59:37;12.60;77.94
71175;DHT22;58876;51.994;4.472;2022-11-15T16:02:02;12.70;77.60
71175;DHT22;58876;51.994;4.472;2022-11-15T16:04:28;12.58;77.99
71175;DHT22;58876;51.994;4.472;2022-11-15T16:06:59;12.59;78.97
71175;DHT22;58876;51.994;4.472;2022-11-15T16:09:24;12.56;79.38
71175;DHT22;58876;51.994;4.472;2022-11-15T16:12:08;12.60;79.93
71175;DHT22;58876;51.994;4.472;2022-11-15T16:14:34;12.58;79.76
71175;DHT22;58876;51.994;4.472;2022-11-15T16:16:59;12.58;80.30
71175;DHT22;58876;51.994;4.472;2022-11-15T16:19:25;12.37;80.78
71175;DHT22;58876;51.994;4.472;2022-11-15T16:21:50;12.31;81.32
71175;DHT22;58876;51.994;4.472;2022-11-15T16:24:17;12.37;81.73
71175;DHT22;58876;51.994;4.472;2022-11-15T16:26:44;12.35;82.14
71175;DHT22;58876;51.994;4.472;2022-11-15T16:29:10;12.29;82.21
71175;DHT22;58876;51.994;4.472;2022-11-15T16:31:36;12.21;82.82
71175;DHT22;58876;51.994;4.472;2022-11-15T16:34:02;12.22;83.10
71175;DHT22;58876;51.994;4.472;2022-11-15T16:36:30;12.34;82.95
71175;DHT22;58876;51.994;4.472;2022-11-15T16:38:58;12.17;83.76
71175;DHT22;58876;51.994;4.472;2022-11-15T16:41:24;12.27;83.80
71175;DHT22;58876;51.994;4.472;2022-11-15T16:43:50;12.18;84.16
71175;DHT22;58876;51.994;4.472;2022-11-15T16:46:16;12.13;84.37
71175;DHT22;58876;51.994;4.472;2022-11-15T16:48:43;12.11;84.63
71175;DHT22;58876;51.994;4.472;2022-11-15T16:51:08;12.17;84.84
71175;DHT22;58876;51.994;4.472;2022-11-15T16:53:34;12.22;84.77
71175;DHT22;58876;51.994;4.472;2022-11-15T16:56:00;12.21;84.85
71175;DHT22;58876;51.994;4.472;2022-11-15T16:58:26;12.22;84.72
71175;DHT22;58876;51.994;4.472;2022-11-15T17:00:53;12.25;85.10
71175;DHT22;58876;51.994;4.472;2022-11-15T17:03:20;12.31;84.73
71175;DHT22;58876;51.994;4.472;2022-11-15T17:05:45;12.27;84.82
71175;DHT22;58876;51.994;4.472;2022-11-15T17:08:10;12.25;85.02
71175;DHT22;58876;51.994;4.472;2022-11-15T17:10:39;12.21;85.41
71175;DHT22;58876;51.994;4.472;2022-11-15T17:13:12;12.20;85.29
71175;DHT22;58876;51.994;4.472;2022-11-15T17:15:38;12.20;85.76